sensor_id;sensor_type;location;lat;lon;timestamp;P1;durP1;ratioP1;P2;durP2;ratioP2
11845;SDS011;5982;37.494;-8.758;2022-11-06T02:55:05;34.85;;;28.48;;
11845;SDS011;5982;37.494;-8.758;2022-11-06T02:57:40;26.83;;;13.88;;
11845;SDS011;5982;37.494;-8.758;2022-11-06T03:00:12;24.48;;;11.27;;
11845;SDS011;5982;37.494;-8.758;2022-11-06T03:02:43;24.38;;;12.93;;
11845;SDS011;5982;37.494;-8.758;2022-11-06T03:05:18;27.90;;;14.90;;
11845;SDS011;5982;37.494;-8.758;2022-11-06T03:07:52;27.25;;;15.70;;
11845;SDS011;5982;37.494;-8.758;2022-11-06T03:10:25;31.58;;;15.70;;
11845;SDS011;5982;37.494;-8.758;2022-11-06T03:13:02;37.45;;;15.93;;
11845;SDS011;5982;37.494;-8.758;2022-11-06T03:15:42;31.15;;;15.60;;
11845;SDS011;5982;37.494;-8.758;2022-11-06T03:18:21;30.88;;;15.60;;
11845;SDS011;5982;37.494;-8.758;2022-11-06T03:20:59;35.20;;;15.75;;
11845;SDS011;5982;37.494;-8.758;2022-11-06T03:23:33;31.75;;;15.50;;
11845;SDS011;5982;37.494;-8.758;2022-11-06T03:26:10;32.25;;;16.33;;
11845;SDS011;5982;37.494;-8.758;2022-11-06T03:28:46;34.92;;;16.75;;
11845;SDS011;5982;37.494;-8.758;2022-11-06T03:31:21;30.38;;;15.55;;
11845;SDS011;5982;37.494;-8.758;2022-11-06T03:33:56;30.27;;;15.70;;
11845;SDS011;5982;37.494;-8.758;2022-11-06T03:36:29;33.65;;;16.98;;
11845;SDS011;5982;37.494;-8.758;2022-11-06T03:39:00;33.30;;;16.38;;
11845;SDS011;5982;37.494;-8.758;2022-11-06T03:41:34;26.60;;;15.85;;
11845;SDS011;5982;37.494;-8.758;2022-11-06T03:44:10;34.83;;;17.67;;
11845;SDS011;5982;37.494;-8.758;2022-11-06T03:46:48;36.85;;;18.48;;
11845;SDS011;5982;37.494;-8.758;2022-11-06T03:49:24;38.58;;;16.48;;
11845;SDS011;5982;37.494;-8.758;2022-11-06T03:51:58;35.05;;;15.82;;
11845;SDS011;5982;37.494;-8.758;2022-11-06T03:54:34;32.15;;;16.42;;
11845;SDS011;5982;37.494;-8.758;2022-11-06T03:57:06;31.17;;;15.77;;
11845;SDS011;5982;37.494;-8.758;2022-11-06T03:59:42;29.42;;;13.68;;
11845;SDS011;5982;37.494;-8.758;2022-11-06T04:02:14;23.45;;;11.40;;
11845;SDS011;5982;37.494;-8.758;2022-11-06T04:04:45;20.42;;;11.98;;
11845;SDS011;5982;37.494;-8.758;2022-11-06T04:07:18;22.27;;;10.07;;
11845;SDS011;5982;37.494;-8.758;2022-11-06T04:09:50;23.08;;;10.55;;
11845;SDS011;5982;37.494;-8.758;2022-11-06T04:12:39;21.67;;;9.70;;
11845;SDS011;5982;37.494;-8.758;2022-11-06T04:15:24;21.80;;;9.90;;
11845;SDS011;5982;37.494;-8.758;2022-11-06T04:17:53;21.33;;;10.27;;
11845;SDS011;5982;37.494;-8.758;2022-11-06T04:20:21;22.95;;;10.43;;
11845;SDS011;5982;37.494;-8.758;2022-11-06T04:23:18;18.52;;;9.35;;
11845;SDS011;5982;37.494;-8.758;2022-11-06T04:26:01;19.80;;;10.00;;
11845;SDS011;5982;37.494;-8.758;2022-11-06T04:28:55;24.48;;;11.98;;
11845;SDS011;5982;37.494;-8.758;2022-11-06T04:31:36;24.40;;;11.48;;
11845;SDS011;5982;37.494;-8.758;2022-11-06T04:34:13;23.40;;;10.35;;
11845;SDS011;5982;37.494;-8.758;2022-11-06T04:36:47;20.40;;;9.38;;
11845;SDS011;5982;37.494;-8.758;2022-11-06T04:39:26;19.45;;;9.15;;
11845;SDS011;5982;37.494;-8.758;2022-11-06T04:42:01;19.80;;;9.90;;
11845;SDS011;5982;37.494;-8.758;2022-11-06T04:44:36;22.42;;;9.98;;
11845;SDS011;5982;37.494;-8.758;2022-11-06T04:47:10;17.83;;;8.55;;
11845;SDS011;5982;37.494;-8.758;2022-11-06T04:49:42;19.20;;;8.75;;
11845;SDS011;5982;37.494;-8.758;2022-11-06T04:52:12;26.73;;;9.15;;
11845;SDS011;5982;37.494;-8.758;2022-11-06T04:54:45;22.27;;;10.73;;
11845;SDS011;5982;37.494;-8.758;2022-11-06T04:57:14;25.50;;;10.18;;
11845;SDS011;5982;37.494;-8.758;2022-11-06T04:59:42;23.17;;;9.85;;
11845;SDS011;5982;37.494;-8.758;2022-11-06T05:02:12;23.15;;;9.20;;
11845;SDS011;5982;37.494;-8.758;2022-11-06T05:04:40;25.52;;;8.60;;
11845;SDS011;5982;37.494;-8.758;2022-11-06T05:07:10;31.83;;;9.90;;
11845;SDS011;5982;37.494;-8.758;2022-11-06T05:09:40;23.58;;;10.27;;
11845;SDS011;5982;37.494;-8.758;2022-11-06T05:12:10;21.55;;;8.95;;
11845;SDS011;5982;37.494;-8.758;2022-11-06T05:14:38;21.27;;;8.98;;
11845;SDS011;5982;37.494;-8.758;2022-11-06T05:17:06;24.25;;;8.70;;
11845;SDS011;5982;37.494;-8.758;2022-11-06T05:19:36;22.40;;;9.27;;
11845;SDS011;5982;37.494;-8.758;2022-11-06T05:22:04;18.50;;;9.50;;
11845;SDS011;5982;37.494;-8.758;2022-11-06T05:24:49;38.90;;;13.15;;
11845;SDS011;5982;37.494;-8.758;2022-11-06T05:27:18;51.63;;;14.02;;
11845;SDS011;5982;37.494;-8.758;2022-11-06T05:29:46;152.07;;;18.33;;
11845;SDS011;5982;37.494;-8.758;2022-11-06T05:32:14;76.88;;;13.07;;
11845;SDS011;5982;37.494;-8.758;2022-11-06T05:34:44;102.65;;;13.18;;
11845;SDS011;5982;37.494;-8.758;2022-11-06T05:37:12;37.78;;;12.57;;
11845;SDS011;5982;37.494;-8.758;2022-11-06T05:39:40;35.55;;;11.90;;
11845;SDS011;5982;37.494;-8.758;2022-11-06T05:42:08;30.02;;;11.60;;
11845;SDS011;5982;37.494;-8.758;2022-11-06T05:44:37;26.70;;;11.50;;
11845;SDS011;5982;37.494;-8.758;2022-11-06T05:47:05;25.73;;;10.52;;
11845;SDS011;5982;37.494;-8.758;2022-11-06T05:49:33;36.75;;;11.93;;
11845;SDS011;5982;37.494;-8.758;2022-11-06T05:52:03;33.00;;;11.25;;
11845;SDS011;5982;37.494;-8.758;2022-11-06T05:54:31;35.65;;;13.75;;
11845;SDS011;5982;37.494;-8.758;2022-11-06T05:57:00;33.40;;;14.05;;
11845;SDS011;5982;37.494;-8.758;2022-11-06T05:59:28;37.70;;;14.85;;
11845;SDS011;5982;37.494;-8.758;2022-11-06T06:01:56;35.97;;;14.65;;
11845;SDS011;5982;37.494;-8.758;2022-11-06T06:04:25;36.03;;;14.35;;
11845;SDS011;5982;37.494;-8.758;2022-11-06T06:06:53;44.42;;;15.23;;
11845;SDS011;5982;37.494;-8.758;2022-11-06T06:09:23;109.65;;;53.40;;
11845;SDS011;5982;37.494;-8.758;2022-11-06T06:11:51;51.22;;;26.55;;
11845;SDS011;5982;37.494;-8.758;2022-11-06T06:14:20;31.83;;;15.13;;
11845;SDS011;5982;37.494;-8.758;2022-11-06T06:16:48;22.02;;;11.63;;
11845;SDS011;5982;37.494;-8.758;2022-11-06T06:19:17;26.73;;;11.05;;
11845;SDS011;5982;37.494;-8.758;2022-11-06T06:21:45;20.45;;;9.40;;
11845;SDS011;5982;37.494;-8.758;2022-11-06T06:24:14;20.67;;;8.55;;
11845;SDS011;5982;37.494;-8.758;2022-11-06T06:26:44;16.25;;;8.15;;
11845;SDS011;5982;37.494;-8.758;2022-11-06T06:29:13;24.00;;;9.82;;
11845;SDS011;5982;37.494;-8.758;2022-11-06T06:31:42;29.23;;;11.73;;
11845;SDS011;5982;37.494;-8.758;2022-11-06T06:34:11;27.73;;;12.68;;
11845;SDS011;5982;37.494;-8.758;2022-11-06T06:36:39;33.03;;;13.30;;
11845;SDS011;5982;37.494;-8.758;2022-11-06T06:39:07;34.95;;;15.13;;
11845;SDS011;5982;37.494;-8.758;2022-11-06T06:41:36;42.33;;;16.83;;
11845;SDS011;5982;37.494;-8.758;2022-11-06T06:44:06;29.33;;;13.40;;
11845;SDS011;5982;37.494;-8.758;2022-11-06T06:46:34;26.85;;;11.55;;
11845;SDS011;5982;37.494;-8.758;2022-11-06T06:49:02;29.75;;;14.68;;
11845;SDS011;5982;37.494;-8.758;2022-11-06T06:51:30;28.67;;;13.93;;
11845;SDS011;5982;37.494;-8.758;2022-11-06T06:53:59;25.60;;;10.93;;
11845;SDS011;5982;37.494;-8.758;2022-11-06T06:56:27;20.48;;;9.55;;
11845;SDS011;5982;37.494;-8.758;2022-11-06T06:58:56;22.08;;;10.80;;
11845;SDS011;5982;37.494;-8.758;2022-11-06T07:01:25;17.98;;;8.80;;
11845;SDS011;5982;37.494;-8.758;2022-11-06T07:03:53;19.58;;;10.90;;
11845;SDS011;5982;37.494;-8.758;2022-11-06T07:06:22;13.60;;;8.60;;
11845;SDS011;5982;37.494;-8.758;2022-11-06T07:08:53;18.42;;;9.80;;
11845;SDS011;5982;37.494;-8.758;2022-11-06T07:11:22;21.88;;;11.93;;
11845;SDS011;5982;37.494;-8.758;2022-11-06T07:13:50;21.67;;;10.52;;
11845;SDS011;5982;37.494;-8.758;2022-11-06T07:16:18;18.83;;;9.38;;
11845;SDS011;5982;37.494;-8.758;2022-11-06T07:18:48;18.10;;;8.85;;
11845;SDS011;5982;37.494;-8.758;2022-11-06T07:21:16;22.90;;;10.25;;
11845;SDS011;5982;37.494;-8.758;2022-11-06T07:23:44;23.70;;;10.80;;
11845;SDS011;5982;37.494;-8.758;2022-11-06T07:26:13;22.60;;;12.13;;
11845;SDS011;5982;37.494;-8.758;2022-11-06T07:28:41;23.80;;;9.43;;
11845;SDS011;5982;37.494;-8.758;2022-11-06T07:31:09;19.50;;;8.60;;
11845;SDS011;5982;37.494;-8.758;2022-11-06T07:33:38;18.63;;;8.55;;
11845;SDS011;5982;37.494;-8.758;2022-11-06T07:36:08;16.50;;;6.85;;
11845;SDS011;5982;37.494;-8.758;2022-11-06T07:38:39;16.65;;;6.35;;
11845;SDS011;5982;37.494;-8.758;2022-11-06T07:41:08;15.13;;;6.20;;
11845;SDS011;5982;37.494;-8.758;2022-11-06T07:43:39;14.55;;;6.50;;
11845;SDS011;5982;37.494;-8.758;2022-11-06T07:46:08;17.63;;;6.90;;
11845;SDS011;5982;37.494;-8.758;2022-11-06T07:48:38;14.30;;;7.03;;
11845;SDS011;5982;37.494;-8.758;2022-11-06T07:51:08;17.85;;;6.57;;
11845;SDS011;5982;37.494;-8.758;2022-11-06T07:53:38;17.00;;;8.10;;
11845;SDS011;5982;37.494;-8.758;2022-11-06T07:56:07;12.73;;;5.30;;
11845;SDS011;5982;37.494;-8.758;2022-11-06T07:58:35;11.27;;;4.45;;
11845;SDS011;5982;37.494;-8.758;2022-11-06T08:01:04;10.70;;;4.60;;
11845;SDS011;5982;37.494;-8.758;2022-11-06T08:03:37;16.52;;;5.15;;
11845;SDS011;5982;37.494;-8.758;2022-11-06T08:06:05;11.93;;;4.28;;
11845;SDS011;5982;37.494;-8.758;2022-11-06T08:08:35;9.02;;;4.60;;
11845;SDS011;5982;37.494;-8.758;2022-11-06T08:11:04;9.32;;;4.05;;
11845;SDS011;5982;37.494;-8.758;2022-11-06T08:13:34;9.75;;;4.47;;
11845;SDS011;5982;37.494;-8.758;2022-11-06T08:16:03;10.23;;;4.57;;
11845;SDS011;5982;37.494;-8.758;2022-11-06T08:18:33;12.88;;;4.63;;
11845;SDS011;5982;37.494;-8.758;2022-11-06T08:21:01;11.88;;;4.88;;
11845;SDS011;5982;37.494;-8.758;2022-11-06T08:23:33;8.80;;;4.88;;
11845;SDS011;5982;37.494;-8.758;2022-11-06T08:26:03;8.63;;;4.53;;
11845;SDS011;5982;37.494;-8.758;2022-11-06T08:28:32;11.00;;;5.15;;
11845;SDS011;5982;37.494;-8.758;2022-11-06T08:31:02;14.10;;;5.70;;
11845;SDS011;5982;37.494;-8.758;2022-11-06T08:33:31;10.98;;;4.32;;
11845;SDS011;5982;37.494;-8.758;2022-11-06T08:36:00;9.27;;;4.70;;
11845;SDS011;5982;37.494;-8.758;2022-11-06T08:38:30;11.25;;;4.57;;
11845;SDS011;5982;37.494;-8.758;2022-11-06T08:41:02;11.30;;;4.13;;
11845;SDS011;5982;37.494;-8.758;2022-11-06T08:43:32;8.00;;;4.20;;
11845;SDS011;5982;37.494;-8.758;2022-11-06T08:46:01;13.98;;;5.05;;
11845;SDS011;5982;37.494;-8.758;2022-11-06T08:48:30;12.65;;;5.45;;
11845;SDS011;5982;37.494;-8.758;2022-11-06T08:50:59;11.20;;;5.50;;
11845;SDS011;5982;37.494;-8.758;2022-11-06T08:53:27;11.65;;;5.22;;
11845;SDS011;5982;37.494;-8.758;2022-11-06T08:55:57;14.95;;;6.88;;
11845;SDS011;5982;37.494;-8.758;2022-11-06T08:58:26;12.20;;;5.93;;
11845;SDS011;5982;37.494;-8.758;2022-11-06T09:00:54;13.35;;;6.00;;
11845;SDS011;5982;37.494;-8.758;2022-11-06T09:03:22;15.27;;;5.45;;
11845;SDS011;5982;37.494;-8.758;2022-11-06T09:05:51;10.75;;;4.45;;
11845;SDS011;5982;37.494;-8.758;2022-11-06T09:08:19;13.70;;;4.60;;
11845;SDS011;5982;37.494;-8.758;2022-11-06T09:10:48;12.15;;;4.07;;
11845;SDS011;5982;37.494;-8.758;2022-11-06T09:13:18;8.35;;;3.90;;
11845;SDS011;5982;37.494;-8.758;2022-11-06T09:15:46;12.55;;;4.13;;
11845;SDS011;5982;37.494;-8.758;2022-11-06T09:20:42;11.98;;;4.72;;
11845;SDS011;5982;37.494;-8.758;2022-11-06T09:23:11;14.00;;;4.72;;
11845;SDS011;5982;37.494;-8.758;2022-11-06T09:25:39;11.73;;;4.68;;
11845;SDS011;5982;37.494;-8.758;2022-11-06T09:28:07;12.97;;;4.67;;
11845;SDS011;5982;37.494;-8.758;2022-11-06T09:30:37;16.67;;;4.38;;
11845;SDS011;5982;37.494;-8.758;2022-11-06T09:33:05;13.82;;;4.40;;
11845;SDS011;5982;37.494;-8.758;2022-11-06T09:35:34;10.73;;;4.60;;
11845;SDS011;5982;37.494;-8.758;2022-11-06T09:38:03;14.13;;;4.30;;
11845;SDS011;5982;37.494;-8.758;2022-11-06T09:40:34;13.65;;;4.78;;
11845;SDS011;5982;37.494;-8.758;2022-11-06T22:06:34;13.90;;;5.13;;
